sensor_id;sensor_type;location;lat;lon;timestamp;pressure;altitude;pressure_sealevel;temperature;humidity
76205;BME280;64986;55.672;37.628;2022-11-20T00:00:40;99504.00;;;-0.64;70.48
76205;BME280;64986;55.672;37.628;2022-11-20T00:03:05;99505.78;;;-0.65;70.62
76205;BME280;64986;55.672;37.628;2022-11-20T00:05:32;99497.22;;;-0.65;70.82
76205;BME280;64986;55.672;37.628;2022-11-20T00:07:58;99494.50;;;-0.64;70.90
76205;BME280;64986;55.672;37.628;2022-11-20T00:10:23;99502.09;;;-0.62;70.59
76205;BME280;64986;55.672;37.628;2022-11-20T00:12:48;99500.47;;;-0.63;70.78
76205;BME280;64986;55.672;37.628;2022-11-20T00:15:14;99492.88;;;-0.65;70.59
76205;BME280;64986;55.672;37.628;2022-11-20T00:17:39;99501.44;;;-0.64;70.83
76205;BME280;64986;55.672;37.628;2022-11-20T00:20:05;99503.06;;;-0.63;70.49
76205;BME280;64986;55.672;37.628;2022-11-20T00:22:31;99501.97;;;-0.61;70.85
76205;BME280;64986;55.672;37.628;2022-11-20T00:24:56;99506.22;;;-0.60;70.55
76205;BME280;64986;55.672;37.628;2022-11-20T00:27:23;99503.63;;;-0.60;70.78
76205;BME280;64986;55.672;37.628;2022-11-20T00:29:48;99496.13;;;-0.63;70.18
76205;BME280;64986;55.672;37.628;2022-11-20T00:32:14;99503.59;;;-0.69;70.01
76205;BME280;64986;55.672;37.628;2022-11-20T00:34:39;99496.94;;;-0.72;70.32
76205;BME280;64986;55.672;37.628;2022-11-20T00:37:05;99505.63;;;-0.73;70.46
76205;BME280;64986;55.672;37.628;2022-11-20T00:39:30;99506.72;;;-0.75;70.41
76205;BME280;64986;55.672;37.628;2022-11-20T00:41:56;99508.59;;;-0.77;70.55
76205;BME280;64986;55.672;37.628;2022-11-20T00:44:21;99502.06;;;-0.81;70.23
76205;BME280;64986;55.672;37.628;2022-11-20T00:46:46;99499.75;;;-0.85;70.75
76205;BME280;64986;55.672;37.628;2022-11-20T00:49:12;99504.81;;;-0.83;70.46
76205;BME280;64986;55.672;37.628;2022-11-20T00:51:37;99503.94;;;-0.84;70.80
76205;BME280;64986;55.672;37.628;2022-11-20T00:54:03;99506.53;;;-0.84;70.57
76205;BME280;64986;55.672;37.628;2022-11-20T00:56:28;99498.91;;;-0.85;70.64
76205;BME280;64986;55.672;37.628;2022-11-20T00:58:54;99498.25;;;-0.87;70.43
76205;BME280;64986;55.672;37.628;2022-11-20T01:01:23;99506.66;;;-0.85;70.56
76205;BME280;64986;55.672;37.628;2022-11-20T01:03:50;99505.03;;;-0.86;70.32
76205;BME280;64986;55.672;37.628;2022-11-20T01:08:44;99504.22;;;-0.87;70.38
76205;BME280;64986;55.672;37.628;2022-11-20T01:11:15;99504.91;;;-0.85;70.63
76205;BME280;64986;55.672;37.628;2022-11-20T01:13:42;99503.28;;;-0.86;70.54
76205;BME280;64986;55.672;37.628;2022-11-20T01:16:16;99504.22;;;-0.87;70.92
76205;BME280;64986;55.672;37.628;2022-11-20T01:18:44;99496.75;;;-0.90;70.58
76205;BME280;64986;55.672;37.628;2022-11-20T01:21:15;99500.97;;;-0.89;70.69
76205;BME280;64986;55.672;37.628;2022-11-20T01:23:43;99505.31;;;-0.89;70.55
76205;BME280;64986;55.672;37.628;2022-11-20T01:26:10;99511.31;;;-0.89;70.49
76205;BME280;64986;55.672;37.628;2022-11-20T01:28:38;99508.59;;;-0.87;70.38
76205;BME280;64986;55.672;37.628;2022-11-20T01:31:12;99507.50;;;-0.85;70.81
76205;BME280;64986;55.672;37.628;2022-11-20T01:33:39;99506.94;;;-0.88;70.42
76205;BME280;64986;55.672;37.628;2022-11-20T01:36:06;99513.88;;;-0.89;70.33
76205;BME280;64986;55.672;37.628;2022-11-20T01:38:32;99512.94;;;-0.88;70.54
76205;BME280;64986;55.672;37.628;2022-11-20T01:40:57;99514.03;;;-0.90;70.46
76205;BME280;64986;55.672;37.628;2022-11-20T01:43:23;99511.53;;;-0.92;70.39
76205;BME280;64986;55.672;37.628;2022-11-20T01:48:19;99511.81;;;-0.95;70.25
76205;BME280;64986;55.672;37.628;2022-11-20T01:50:46;99527.31;;;-0.95;70.58
76205;BME280;64986;55.672;37.628;2022-11-20T01:53:15;99521.19;;;-0.94;70.32
76205;BME280;64986;55.672;37.628;2022-11-20T01:55:51;99535.75;;;-0.93;70.77
76205;BME280;64986;55.672;37.628;2022-11-20T01:58:21;99533.16;;;-0.93;70.31
76205;BME280;64986;55.672;37.628;2022-11-20T02:00:48;99536.31;;;-0.89;70.31
76205;BME280;64986;55.672;37.628;2022-11-20T02:03:16;99535.63;;;-0.91;70.57
76205;BME280;64986;55.672;37.628;2022-11-20T02:05:57;99544.75;;;-0.87;70.19
76205;BME280;64986;55.672;37.628;2022-11-20T02:08:26;99548.97;;;-0.86;70.10
76205;BME280;64986;55.672;37.628;2022-11-20T02:10:53;99548.00;;;-0.85;70.47
76205;BME280;64986;55.672;37.628;2022-11-20T02:13:22;99547.88;;;-0.84;70.46
76205;BME280;64986;55.672;37.628;2022-11-20T02:16:21;99545.28;;;-0.84;70.49
76205;BME280;64986;55.672;37.628;2022-11-20T02:18:49;99546.97;;;-0.82;70.78
76205;BME280;64986;55.672;37.628;2022-11-20T02:24:19;99557.28;;;-0.82;70.55
76205;BME280;64986;55.672;37.628;2022-11-20T02:29:48;99565.72;;;-0.80;70.80
76205;BME280;64986;55.672;37.628;2022-11-20T02:32:24;99567.63;;;-0.82;70.48
76205;BME280;64986;55.672;37.628;2022-11-20T02:34:50;99569.50;;;-0.85;70.26
76205;BME280;64986;55.672;37.628;2022-11-20T02:37:16;99572.22;;;-0.86;70.48
76205;BME280;64986;55.672;37.628;2022-11-20T02:39:44;99564.59;;;-0.88;70.21
76205;BME280;64986;55.672;37.628;2022-11-20T02:42:11;99574.00;;;-0.87;70.62
76205;BME280;64986;55.672;37.628;2022-11-20T02:44:36;99572.34;;;-0.88;70.54
76205;BME280;64986;55.672;37.628;2022-11-20T02:47:02;99575.09;;;-0.89;70.63
76205;BME280;64986;55.672;37.628;2022-11-20T02:49:28;99578.47;;;-0.89;70.46
76205;BME280;64986;55.672;37.628;2022-11-20T02:51:53;99574.13;;;-0.88;70.50
76205;BME280;64986;55.672;37.628;2022-11-20T02:54:19;99568.16;;;-0.89;70.31
76205;BME280;64986;55.672;37.628;2022-11-20T02:56:44;99570.72;;;-0.89;70.45
76205;BME280;64986;55.672;37.628;2022-11-20T02:59:10;99575.22;;;-0.91;70.30
76205;BME280;64986;55.672;37.628;2022-11-20T03:01:35;99572.50;;;-0.89;70.47
76205;BME280;64986;55.672;37.628;2022-11-20T03:04:01;99570.88;;;-0.90;70.37
76205;BME280;64986;55.672;37.628;2022-11-20T03:06:26;99575.22;;;-0.91;70.38
76205;BME280;64986;55.672;37.628;2022-11-20T03:08:52;99570.72;;;-0.89;70.50
76205;BME280;64986;55.672;37.628;2022-11-20T03:11:17;99574.94;;;-0.88;70.38
76205;BME280;64986;55.672;37.628;2022-11-20T03:13:43;99568.97;;;-0.88;70.71
76205;BME280;64986;55.672;37.628;2022-11-20T03:16:14;99577.38;;;-0.86;70.56
76205;BME280;64986;55.672;37.628;2022-11-20T03:18:40;99577.53;;;-0.88;70.43
76205;BME280;64986;55.672;37.628;2022-11-20T03:21:07;99579.28;;;-0.88;70.25
76205;BME280;64986;55.672;37.628;2022-11-20T03:23:33;99580.13;;;-0.88;70.64
76205;BME280;64986;55.672;37.628;2022-11-20T03:26:18;99591.25;;;-0.87;70.22
76205;BME280;64986;55.672;37.628;2022-11-20T03:28:52;99593.97;;;-0.89;70.39
76205;BME280;64986;55.672;37.628;2022-11-20T03:31:20;99589.78;;;-0.90;70.33
76205;BME280;64986;55.672;37.628;2022-11-20T03:33:46;99584.59;;;-0.90;70.46
76205;BME280;64986;55.672;37.628;2022-11-20T03:36:14;99582.97;;;-0.91;70.20
76205;BME280;64986;55.672;37.628;2022-11-20T03:38:40;99584.84;;;-0.93;70.25
76205;BME280;64986;55.672;37.628;2022-11-20T03:41:11;99583.19;;;-0.94;70.38
76205;BME280;64986;55.672;37.628;2022-11-20T03:43:37;99583.34;;;-0.95;70.49
76205;BME280;64986;55.672;37.628;2022-11-20T03:46:03;99586.06;;;-0.97;70.14
76205;BME280;64986;55.672;37.628;2022-11-20T03:48:29;99587.00;;;-0.98;70.11
76205;BME280;64986;55.672;37.628;2022-11-20T03:51:14;99589.31;;;-0.95;70.64
76205;BME280;64986;55.672;37.628;2022-11-20T03:53:41;99595.19;;;-0.93;70.55
76205;BME280;64986;55.672;37.628;2022-11-20T03:56:07;99602.25;;;-0.95;70.60
76205;BME280;64986;55.672;37.628;2022-11-20T03:58:35;99603.19;;;-0.96;70.63
76205;BME280;64986;55.672;37.628;2022-11-20T04:01:13;99606.59;;;-0.95;70.41
76205;BME280;64986;55.672;37.628;2022-11-20T04:03:40;99599.22;;;-1.00;70.31
76205;BME280;64986;55.672;37.628;2022-11-20T04:06:14;99609.41;;;-0.98;70.30
76205;BME280;64986;55.672;37.628;2022-11-20T04:08:40;99600.84;;;-0.99;70.42
76205;BME280;64986;55.672;37.628;2022-11-20T04:11:12;99606.72;;;-0.97;70.66
76205;BME280;64986;55.672;37.628;2022-11-20T04:13:38;99606.72;;;-0.97;70.38
76205;BME280;64986;55.672;37.628;2022-11-20T04:16:05;99607.69;;;-0.98;70.19
76205;BME280;64986;55.672;37.628;2022-11-20T04:18:32;99617.06;;;-0.97;70.04
76205;BME280;64986;55.672;37.628;2022-11-20T04:20:58;99617.88;;;-0.96;70.34
76205;BME280;64986;55.672;37.628;2022-11-20T04:23:24;99618.69;;;-0.96;70.28
76205;BME280;64986;55.672;37.628;2022-11-20T04:25:50;99617.75;;;-0.95;70.37
76205;BME280;64986;55.672;37.628;2022-11-20T04:28:16;99626.31;;;-0.94;70.24
76205;BME280;64986;55.672;37.628;2022-11-20T04:30:41;99630.78;;;-0.96;70.14
76205;BME280;64986;55.672;37.628;2022-11-20T04:33:07;99624.09;;;-0.99;70.46
76205;BME280;64986;55.672;37.628;2022-11-20T04:35:36;99630.34;;;-1.01;70.30
76205;BME280;64986;55.672;37.628;2022-11-20T04:38:02;99636.47;;;-1.02;70.22
76205;BME280;64986;55.672;37.628;2022-11-20T04:40:28;99639.88;;;-1.02;69.98
76205;BME280;64986;55.672;37.628;2022-11-20T04:42:54;99643.41;;;-1.03;70.34
76205;BME280;64986;55.672;37.628;2022-11-20T04:45:20;99645.97;;;-1.03;70.25
76205;BME280;64986;55.672;37.628;2022-11-20T04:47:46;99658.63;;;-1.00;70.18
76205;BME280;64986;55.672;37.628;2022-11-20T04:50:11;99659.44;;;-0.99;70.29
76205;BME280;64986;55.672;37.628;2022-11-20T04:52:37;99671.53;;;-1.00;70.26
76205;BME280;64986;55.672;37.628;2022-11-20T04:55:03;99660.97;;;-0.97;70.08
76205;BME280;64986;55.672;37.628;2022-11-20T04:57:28;99661.22;;;-1.00;69.95
76205;BME280;64986;55.672;37.628;2022-11-20T04:59:54;99669.91;;;-1.01;69.72
76205;BME280;64986;55.672;37.628;2022-11-20T05:02:20;99663.94;;;-1.01;70.07
76205;BME280;64986;55.672;37.628;2022-11-20T05:04:45;99674.94;;;-0.99;70.31
76205;BME280;64986;55.672;37.628;2022-11-20T05:07:11;99679.06;;;-0.97;70.26
76205;BME280;64986;55.672;37.628;2022-11-20T05:09:36;99670.38;;;-0.96;70.18
76205;BME280;64986;55.672;37.628;2022-11-20T05:12:02;99669.53;;;-0.96;70.13
76205;BME280;64986;55.672;37.628;2022-11-20T05:14:27;99670.38;;;-0.96;70.18
76205;BME280;64986;55.672;37.628;2022-11-20T05:16:53;99684.78;;;-0.93;70.21
76205;BME280;64986;55.672;37.628;2022-11-20T05:19:18;99679.88;;;-0.96;70.19
76205;BME280;64986;55.672;37.628;2022-11-20T05:21:43;99689.25;;;-0.95;70.19
76205;BME280;64986;55.672;37.628;2022-11-20T05:24:09;99678.94;;;-0.95;69.98
76205;BME280;64986;55.672;37.628;2022-11-20T05:26:35;99681.53;;;-0.95;70.20
76205;BME280;64986;55.672;37.628;2022-11-20T05:29:00;99695.94;;;-0.93;70.27
76205;BME280;64986;55.672;37.628;2022-11-20T05:31:26;99705.31;;;-0.92;70.11
76205;BME280;64986;55.672;37.628;2022-11-20T05:33:51;99702.75;;;-0.92;70.18
76205;BME280;64986;55.672;37.628;2022-11-20T05:36:17;99702.63;;;-0.90;70.01
76205;BME280;64986;55.672;37.628;2022-11-20T05:38:43;99706.72;;;-0.88;69.87
76205;BME280;64986;55.672;37.628;2022-11-20T05:41:14;99702.25;;;-0.86;70.40
76205;BME280;64986;55.672;37.628;2022-11-20T05:43:42;99704.00;;;-0.86;70.19
76205;BME280;64986;55.672;37.628;2022-11-20T05:46:09;99708.94;;;-0.83;70.09
76205;BME280;64986;55.672;37.628;2022-11-20T05:48:36;99715.75;;;-0.82;70.02
76205;BME280;64986;55.672;37.628;2022-11-20T05:51:03;99720.78;;;-0.80;69.86
76205;BME280;64986;55.672;37.628;2022-11-20T05:53:30;99721.59;;;-0.80;70.14
76205;BME280;64986;55.672;37.628;2022-11-20T05:56:10;99731.81;;;-0.78;69.98
76205;BME280;64986;55.672;37.628;2022-11-20T05:58:36;99729.22;;;-0.78;69.78
76205;BME280;64986;55.672;37.628;2022-11-20T06:01:19;99737.66;;;-0.76;69.84
76205;BME280;64986;55.672;37.628;2022-11-20T06:03:45;99744.59;;;-0.77;69.81
76205;BME280;64986;55.672;37.628;2022-11-20T06:06:13;99748.94;;;-0.77;69.67
76205;BME280;64986;55.672;37.628;2022-11-20T06:08:39;99750.84;;;-0.79;69.83
76205;BME280;64986;55.672;37.628;2022-11-20T06:11:06;99747.44;;;-0.80;69.32
76205;BME280;64986;55.672;37.628;2022-11-20T06:13:32;99737.91;;;-0.79;69.47
76205;BME280;64986;55.672;37.628;2022-11-20T06:15:58;99746.63;;;-0.80;69.53
76205;BME280;64986;55.672;37.628;2022-11-20T06:18:26;99749.66;;;-0.75;69.72
76205;BME280;64986;55.672;37.628;2022-11-20T06:20:59;99762.31;;;-0.72;69.43
76205;BME280;64986;55.672;37.628;2022-11-20T06:23:25;99759.47;;;-0.69;69.81
76205;BME280;64986;55.672;37.628;2022-11-20T06:25:50;99774.47;;;-0.63;69.62
76205;BME280;64986;55.672;37.628;2022-11-20T06:28:16;99782.94;;;-0.61;69.41
76205;BME280;64986;55.672;37.628;2022-11-20T06:30:44;99789.88;;;-0.62;68.97
76205;BME280;64986;55.672;37.628;2022-11-20T06:33:10;99792.44;;;-0.62;69.20
76205;BME280;64986;55.672;37.628;2022-11-20T06:35:36;99793.97;;;-0.59;69.11
76205;BME280;64986;55.672;37.628;2022-11-20T06:38:01;99791.13;;;-0.56;69.38
76205;BME280;64986;55.672;37.628;2022-11-20T06:40:27;99788.53;;;-0.56;69.31
76205;BME280;64986;55.672;37.628;2022-11-20T06:42:54;99783.38;;;-0.56;68.88
76205;BME280;64986;55.672;37.628;2022-11-20T06:45:20;99781.75;;;-0.57;68.86
76205;BME280;64986;55.672;37.628;2022-11-20T06:47:46;99771.41;;;-0.57;69.22
76205;BME280;64986;55.672;37.628;2022-11-20T06:50:11;99774.13;;;-0.59;69.08
76205;BME280;64986;55.672;37.628;2022-11-20T06:52:37;99774.94;;;-0.58;69.15
76205;BME280;64986;55.672;37.628;2022-11-20T06:55:02;99772.78;;;-0.53;68.90
76205;BME280;64986;55.672;37.628;2022-11-20T06:57:28;99769.94;;;-0.50;69.12
76205;BME280;64986;55.672;37.628;2022-11-20T06:59:54;99778.16;;;-0.45;69.04
76205;BME280;64986;55.672;37.628;2022-11-20T07:02:19;99782.94;;;-0.40;68.98
76205;BME280;64986;55.672;37.628;2022-11-20T07:04:45;99777.63;;;-0.39;69.14
76205;BME280;64986;55.672;37.628;2022-11-20T07:07:10;99771.94;;;-0.33;68.96
76205;BME280;64986;55.672;37.628;2022-11-20T07:09:36;99771.72;;;-0.30;68.77
76205;BME280;64986;55.672;37.628;2022-11-20T07:12:01;99770.34;;;-0.24;68.71
76205;BME280;64986;55.672;37.628;2022-11-20T07:14:27;99767.25;;;-0.18;68.93
76205;BME280;64986;55.672;37.628;2022-11-20T07:16:52;99774.66;;;-0.13;68.80
76205;BME280;64986;55.672;37.628;2022-11-20T07:19:18;99771.78;;;-0.10;68.64
76205;BME280;64986;55.672;37.628;2022-11-20T07:21:43;99790.72;;;-0.10;68.45
76205;BME280;64986;55.672;37.628;2022-11-20T07:24:08;99787.31;;;-0.10;68.35
76205;BME280;64986;55.672;37.628;2022-11-20T07:26:34;99784.59;;;-0.09;68.26
76205;BME280;64986;55.672;37.628;2022-11-20T07:29:00;99780.22;;;-0.08;67.91
76205;BME280;64986;55.672;37.628;2022-11-20T07:31:26;99773.19;;;-0.06;68.26
76205;BME280;64986;55.672;37.628;2022-11-20T07:33:51;99777.13;;;-0.02;68.39
76205;BME280;64986;55.672;37.628;2022-11-20T07:36:16;99776.88;;;0.01;68.12
76205;BME280;64986;55.672;37.628;2022-11-20T07:38:42;99790.50;;;0.03;67.94
76205;BME280;64986;55.672;37.628;2022-11-20T07:41:07;99792.81;;;0.06;68.06
76205;BME280;64986;55.672;37.628;2022-11-20T07:43:33;99800.22;;;0.11;68.66
76205;BME280;64986;55.672;37.628;2022-11-20T07:45:58;99796.53;;;0.13;67.88
76205;BME280;64986;55.672;37.628;2022-11-20T07:48:24;99799.69;;;0.17;67.89
76205;BME280;64986;55.672;37.628;2022-11-20T07:50:53;99804.16;;;0.15;67.74
76205;BME280;64986;55.672;37.628;2022-11-20T07:53:19;99807.69;;;0.14;67.43
76205;BME280;64986;55.672;37.628;2022-11-20T07:55:47;99796.41;;;0.15;67.52
76205;BME280;64986;55.672;37.628;2022-11-20T07:58:13;99796.16;;;0.18;67.74
76205;BME280;64986;55.672;37.628;2022-11-20T08:00:39;99790.00;;;0.09;67.45
76205;BME280;64986;55.672;37.628;2022-11-20T08:03:05;99811.50;;;0.10;67.48
76205;BME280;64986;55.672;37.628;2022-11-20T08:05:31;99805.53;;;0.09;67.45
76205;BME280;64986;55.672;37.628;2022-11-20T08:07:56;99810.28;;;0.14;67.53
76205;BME280;64986;55.672;37.628;2022-11-20T08:10:22;99806.38;;;0.19;67.37
76205;BME280;64986;55.672;37.628;2022-11-20T08:12:49;99813.63;;;0.25;67.49
76205;BME280;64986;55.672;37.628;2022-11-20T08:15:34;99829.97;;;0.26;67.45
76205;BME280;64986;55.672;37.628;2022-11-20T08:18:10;99822.19;;;0.26;67.44
76205;BME280;64986;55.672;37.628;2022-11-20T08:20:37;99821.38;;;0.25;67.26
76205;BME280;64986;55.672;37.628;2022-11-20T08:23:07;99810.63;;;0.30;67.42
76205;BME280;64986;55.672;37.628;2022-11-20T08:25:34;99806.66;;;0.26;67.14
76205;BME280;64986;55.672;37.628;2022-11-20T08:28:03;99818.22;;;0.22;67.21
76205;BME280;64986;55.672;37.628;2022-11-20T08:30:29;99832.44;;;0.27;67.18
76205;BME280;64986;55.672;37.628;2022-11-20T08:32:54;99831.06;;;0.23;67.02
76205;BME280;64986;55.672;37.628;2022-11-20T08:35:21;99821.09;;;0.19;67.35
76205;BME280;64986;55.672;37.628;2022-11-20T08:37:47;99831.06;;;0.23;67.38
76205;BME280;64986;55.672;37.628;2022-11-20T08:40:13;99830.94;;;0.25;67.16
76205;BME280;64986;55.672;37.628;2022-11-20T08:42:49;99832.03;;;0.32;67.25
76205;BME280;64986;55.672;37.628;2022-11-20T08:45:15;99818.97;;;0.34;67.31
76205;BME280;64986;55.672;37.628;2022-11-20T08:47:42;99825.41;;;0.39;67.12
76205;BME280;64986;55.672;37.628;2022-11-20T08:50:09;99831.78;;;0.45;67.35
76205;BME280;64986;55.672;37.628;2022-11-20T08:52:34;99838.50;;;0.47;67.05
76205;BME280;64986;55.672;37.628;2022-11-20T08:55:00;99845.28;;;0.39;66.71
76205;BME280;64986;55.672;37.628;2022-11-20T08:57:25;99846.06;;;0.30;66.63
76205;BME280;64986;55.672;37.628;2022-11-20T08:59:51;99865.91;;;0.19;67.17
76205;BME280;64986;55.672;37.628;2022-11-20T09:02:16;99870.72;;;0.24;67.07
76205;BME280;64986;55.672;37.628;2022-11-20T09:04:43;99872.31;;;0.15;66.83
76205;BME280;64986;55.672;37.628;2022-11-20T09:07:12;99878.34;;;0.05;67.28
76205;BME280;64986;55.672;37.628;2022-11-20T09:09:38;99879.19;;;0.05;67.21
76205;BME280;64986;55.672;37.628;2022-11-20T09:12:05;99883.03;;;0.11;67.17
76205;BME280;64986;55.672;37.628;2022-11-20T09:14:32;99886.88;;;0.16;67.12
76205;BME280;64986;55.672;37.628;2022-11-20T09:16:59;99887.53;;;0.09;67.03
76205;BME280;64986;55.672;37.628;2022-11-20T09:19:25;99892.38;;;0.02;67.19
76205;BME280;64986;55.672;37.628;2022-11-20T09:21:51;99894.03;;;0.03;67.66
76205;BME280;64986;55.672;37.628;2022-11-20T09:24:17;99902.47;;;0.05;67.71
76205;BME280;64986;55.672;37.628;2022-11-20T09:26:43;99904.38;;;0.03;67.57
76205;BME280;64986;55.672;37.628;2022-11-20T09:29:08;99916.03;;;-0.03;67.77
76205;BME280;64986;55.672;37.628;2022-11-20T09:31:34;99930.28;;;-0.08;67.83
76205;BME280;64986;55.672;37.628;2022-11-20T09:33:59;99917.88;;;-0.14;68.19
76205;BME280;64986;55.672;37.628;2022-11-20T09:36:25;99923.75;;;-0.12;68.32
76205;BME280;64986;55.672;37.628;2022-11-20T09:38:51;99931.97;;;-0.07;68.12
76205;BME280;64986;55.672;37.628;2022-11-20T09:47:20;99926.97;;;0.01;68.20
76205;BME280;64986;55.672;37.628;2022-11-20T09:55:26;99923.06;;;-0.14;68.05
76205;BME280;64986;55.672;37.628;2022-11-20T09:57:54;99927.13;;;-0.33;68.63
76205;BME280;64986;55.672;37.628;2022-11-20T10:00:21;99924.00;;;-0.47;70.00
76205;BME280;64986;55.672;37.628;2022-11-20T10:03:21;99922.00;;;-0.44;70.27
76205;BME280;64986;55.672;37.628;2022-11-20T10:05:53;99924.34;;;-0.41;69.15
76205;BME280;64986;55.672;37.628;2022-11-20T10:08:24;99930.34;;;-0.40;68.82
76205;BME280;64986;55.672;37.628;2022-11-20T10:10:56;99936.25;;;-0.49;69.48
76205;BME280;64986;55.672;37.628;2022-11-20T10:18:56;99936.19;;;-0.70;69.11
76205;BME280;64986;55.672;37.628;2022-11-20T10:29:19;99939.69;;;-0.60;69.15
76205;BME280;64986;55.672;37.628;2022-11-20T10:32:01;99942.38;;;-0.50;69.21
76205;BME280;64986;55.672;37.628;2022-11-20T10:37:19;99942.72;;;-0.55;69.68
76205;BME280;64986;55.672;37.628;2022-11-20T10:39:54;99948.50;;;-0.51;69.22
76205;BME280;64986;55.672;37.628;2022-11-20T10:42:37;99954.69;;;-0.54;69.07
76205;BME280;64986;55.672;37.628;2022-11-20T10:45:22;99949.31;;;-0.51;68.72
76205;BME280;64986;55.672;37.628;2022-11-20T10:47:58;99948.50;;;-0.51;69.05
76205;BME280;64986;55.672;37.628;2022-11-20T10:50:30;99960.31;;;-0.38;68.77
76205;BME280;64986;55.672;37.628;2022-11-20T10:55:47;99968.75;;;-0.68;69.37
76205;BME280;64986;55.672;37.628;2022-11-20T11:00:46;99965.19;;;-0.56;69.34
76205;BME280;64986;55.672;37.628;2022-11-20T11:03:27;99960.47;;;-0.62;69.37
76205;BME280;64986;55.672;37.628;2022-11-20T11:06:03;99967.06;;;-0.58;69.45
76205;BME280;64986;55.672;37.628;2022-11-20T11:08:36;99968.22;;;-0.50;69.01
76205;BME280;64986;55.672;37.628;2022-11-20T11:13:42;99988.38;;;-0.88;69.42
76205;BME280;64986;55.672;37.628;2022-11-20T11:16:23;99981.09;;;-0.94;69.70
76205;BME280;64986;55.672;37.628;2022-11-20T11:18:48;99981.31;;;-0.86;69.48
76205;BME280;64986;55.672;37.628;2022-11-20T11:21:21;99984.84;;;-0.87;69.72
76205;BME280;64986;55.672;37.628;2022-11-20T11:23:57;99987.56;;;-0.88;69.98
76205;BME280;64986;55.672;37.628;2022-11-20T11:26:24;99983.69;;;-0.82;69.62
76205;BME280;64986;55.672;37.628;2022-11-20T11:28:59;99988.28;;;-0.97;69.84
76205;BME280;64986;55.672;37.628;2022-11-20T11:34:26;99982.53;;;-1.01;69.78
76205;BME280;64986;55.672;37.628;2022-11-20T11:36:57;99980.06;;;-1.02;69.73
76205;BME280;64986;55.672;37.628;2022-11-20T11:39:23;99977.34;;;-1.01;69.78
76205;BME280;64986;55.672;37.628;2022-11-20T11:41:50;99992.63;;;-0.98;69.77
76205;BME280;64986;55.672;37.628;2022-11-20T11:47:06;99987.47;;;-0.98;69.24
76205;BME280;64986;55.672;37.628;2022-11-20T11:49:35;99989.56;;;-1.03;68.95
76205;BME280;64986;55.672;37.628;2022-11-20T11:52:21;99982.31;;;-0.98;68.69
76205;BME280;64986;55.672;37.628;2022-11-20T11:54:57;99990.97;;;-1.10;69.34
76205;BME280;64986;55.672;37.628;2022-11-20T11:57:46;100001.78;;;-1.27;69.24
76205;BME280;64986;55.672;37.628;2022-11-20T12:00:19;99998.03;;;-1.12;69.23
76205;BME280;64986;55.672;37.628;2022-11-20T12:05:24;100003.66;;;-1.18;69.44
76205;BME280;64986;55.672;37.628;2022-11-20T12:07:58;100001.78;;;-1.16;69.28
76205;BME280;64986;55.672;37.628;2022-11-20T12:13:01;100012.13;;;-1.05;68.63
76205;BME280;64986;55.672;37.628;2022-11-20T12:15:32;100005.66;;;-1.22;68.99
76205;BME280;64986;55.672;37.628;2022-11-20T12:17:59;100007.41;;;-1.22;69.16
76205;BME280;64986;55.672;37.628;2022-11-20T12:20:29;100006.13;;;-1.17;68.80
76205;BME280;64986;55.672;37.628;2022-11-20T12:23:10;100005.44;;;-1.19;68.29
76205;BME280;64986;55.672;37.628;2022-11-20T12:25:39;99997.44;;;-1.16;68.44
76205;BME280;64986;55.672;37.628;2022-11-20T12:36:09;99994.84;;;-1.16;68.76
76205;BME280;64986;55.672;37.628;2022-11-20T12:56:30;100016.75;;;-1.44;68.87
76205;BME280;64986;55.672;37.628;2022-11-20T13:07:11;100022.53;;;-1.29;68.23
76205;BME280;64986;55.672;37.628;2022-11-20T13:09:43;100027.38;;;-1.24;68.04
76205;BME280;64986;55.672;37.628;2022-11-20T13:15:42;100012.69;;;-1.35;68.54
76205;BME280;64986;55.672;37.628;2022-11-20T13:17:58;100019.63;;;-1.35;69.04
76205;BME280;64986;55.672;37.628;2022-11-20T13:20:24;100018.44;;;-1.43;68.96
76205;BME280;64986;55.672;37.628;2022-11-20T13:22:55;100020.53;;;-1.36;69.17
76205;BME280;64986;55.672;37.628;2022-11-20T13:27:51;100032.41;;;-1.34;68.92
76205;BME280;64986;55.672;37.628;2022-11-20T13:30:23;100035.31;;;-1.38;68.61
76205;BME280;64986;55.672;37.628;2022-11-20T13:33:08;100041.31;;;-1.38;68.52
76205;BME280;64986;55.672;37.628;2022-11-20T13:35:37;100036.97;;;-1.37;68.80
76205;BME280;64986;55.672;37.628;2022-11-20T13:38:14;100051.44;;;-1.35;68.69
76205;BME280;64986;55.672;37.628;2022-11-20T13:40:53;100054.09;;;-1.36;69.02
76205;BME280;64986;55.672;37.628;2022-11-20T13:43:36;100039.66;;;-1.39;68.64
76205;BME280;64986;55.672;37.628;2022-11-20T13:46:05;100032.63;;;-1.37;68.84
76205;BME280;64986;55.672;37.628;2022-11-20T13:48:33;100048.34;;;-1.40;68.68
76205;BME280;64986;55.672;37.628;2022-11-20T13:51:45;100048.59;;;-1.32;68.37
76205;BME280;64986;55.672;37.628;2022-11-20T14:00:24;100056.34;;;-1.32;68.66
76205;BME280;64986;55.672;37.628;2022-11-20T14:05:34;100058.06;;;-1.44;68.67
76205;BME280;64986;55.672;37.628;2022-11-20T14:08:03;100056.56;;;-1.46;68.20
76205;BME280;64986;55.672;37.628;2022-11-20T14:10:29;100045.78;;;-1.40;68.16
76205;BME280;64986;55.672;37.628;2022-11-20T14:12:55;100057.16;;;-1.43;68.74
76205;BME280;64986;55.672;37.628;2022-11-20T14:15:34;100059.75;;;-1.43;68.77
76205;BME280;64986;55.672;37.628;2022-11-20T14:18:12;100073.13;;;-1.37;68.30
76205;BME280;64986;55.672;37.628;2022-11-20T14:20:38;100079.34;;;-1.29;68.61
76205;BME280;64986;55.672;37.628;2022-11-20T14:23:09;100063.41;;;-1.34;68.11
76205;BME280;64986;55.672;37.628;2022-11-20T14:25:36;100077.84;;;-1.31;68.66
76205;BME280;64986;55.672;37.628;2022-11-20T14:28:03;100071.03;;;-1.32;68.27
76205;BME280;64986;55.672;37.628;2022-11-20T14:30:47;100066.91;;;-1.35;68.64
76205;BME280;64986;55.672;37.628;2022-11-20T14:33:14;100070.53;;;-1.37;68.49
76205;BME280;64986;55.672;37.628;2022-11-20T14:35:48;100078.28;;;-1.37;68.54
76205;BME280;64986;55.672;37.628;2022-11-20T14:38:17;100082.88;;;-1.41;68.41
76205;BME280;64986;55.672;37.628;2022-11-20T14:40:44;100085.31;;;-1.40;68.48
76205;BME280;64986;55.672;37.628;2022-11-20T14:43:22;100093.69;;;-1.36;68.44